sensor_id;sensor_type;location;lat;lon;timestamp;P1;durP1;ratioP1;P2;durP2;ratioP2
11088;SDS011;5598;48.648;8.908;2023-05-07T00:01:39;0.00;;;0.00;;
11088;SDS011;5598;48.648;8.908;2023-05-07T00:04:06;0.00;;;0.00;;
11088;SDS011;5598;48.648;8.908;2023-05-07T00:06:33;0.00;;;0.00;;
11088;SDS011;5598;48.648;8.908;2023-05-07T00:09:00;0.00;;;0.00;;
11088;SDS011;5598;48.648;8.908;2023-05-07T00:11:28;0.00;;;0.00;;
11088;SDS011;5598;48.648;8.908;2023-05-07T00:13:55;0.00;;;0.00;;
11088;SDS011;5598;48.648;8.908;2023-05-07T00:16:22;0.00;;;0.00;;
11088;SDS011;5598;48.648;8.908;2023-05-07T00:18:50;0.00;;;0.00;;
11088;SDS011;5598;48.648;8.908;2023-05-07T00:21:17;0.00;;;0.00;;
11088;SDS011;5598;48.648;8.908;2023-05-07T00:23:43;0.00;;;0.00;;
11088;SDS011;5598;48.648;8.908;2023-05-07T00:26:10;0.00;;;0.00;;
11088;SDS011;5598;48.648;8.908;2023-05-07T00:28:37;0.00;;;0.00;;
11088;SDS011;5598;48.648;8.908;2023-05-07T00:31:04;0.00;;;0.00;;
11088;SDS011;5598;48.648;8.908;2023-05-07T00:33:31;0.00;;;0.00;;
11088;SDS011;5598;48.648;8.908;2023-05-07T00:35:59;0.00;;;0.00;;
11088;SDS011;5598;48.648;8.908;2023-05-07T00:38:26;0.00;;;0.00;;
11088;SDS011;5598;48.648;8.908;2023-05-07T00:40:53;0.00;;;0.00;;
11088;SDS011;5598;48.648;8.908;2023-05-07T00:43:20;0.00;;;0.00;;
11088;SDS011;5598;48.648;8.908;2023-05-07T00:45:47;0.00;;;0.00;;
11088;SDS011;5598;48.648;8.908;2023-05-07T00:48:14;0.00;;;0.00;;
11088;SDS011;5598;48.648;8.908;2023-05-07T00:50:41;0.00;;;0.00;;
11088;SDS011;5598;48.648;8.908;2023-05-07T00:53:09;0.00;;;0.00;;
11088;SDS011;5598;48.648;8.908;2023-05-07T00:55:36;0.00;;;0.00;;
11088;SDS011;5598;48.648;8.908;2023-05-07T00:58:03;0.00;;;0.00;;
11088;SDS011;5598;48.648;8.908;2023-05-07T01:00:30;0.47;;;0.47;;
11088;SDS011;5598;48.648;8.908;2023-05-07T01:02:57;0.10;;;0.10;;
11088;SDS011;5598;48.648;8.908;2023-05-07T01:05:24;0.00;;;0.00;;
11088;SDS011;5598;48.648;8.908;2023-05-07T01:07:54;0.00;;;0.00;;
11088;SDS011;5598;48.648;8.908;2023-05-07T01:10:24;0.00;;;0.00;;
11088;SDS011;5598;48.648;8.908;2023-05-07T01:12:51;0.00;;;0.00;;
11088;SDS011;5598;48.648;8.908;2023-05-07T01:15:20;0.00;;;0.00;;
11088;SDS011;5598;48.648;8.908;2023-05-07T01:17:46;0.00;;;0.00;;
11088;SDS011;5598;48.648;8.908;2023-05-07T01:20:13;0.00;;;0.00;;
11088;SDS011;5598;48.648;8.908;2023-05-07T01:22:42;0.00;;;0.00;;
11088;SDS011;5598;48.648;8.908;2023-05-07T01:25:09;0.00;;;0.00;;
11088;SDS011;5598;48.648;8.908;2023-05-07T01:27:36;0.00;;;0.00;;
11088;SDS011;5598;48.648;8.908;2023-05-07T01:30:03;0.00;;;0.00;;
11088;SDS011;5598;48.648;8.908;2023-05-07T01:32:32;0.00;;;0.00;;
11088;SDS011;5598;48.648;8.908;2023-05-07T01:35:03;0.00;;;0.00;;
11088;SDS011;5598;48.648;8.908;2023-05-07T01:37:34;0.00;;;0.00;;
11088;SDS011;5598;48.648;8.908;2023-05-07T01:40:02;0.00;;;0.00;;
11088;SDS011;5598;48.648;8.908;2023-05-07T01:42:32;0.00;;;0.00;;
11088;SDS011;5598;48.648;8.908;2023-05-07T01:44:59;0.00;;;0.00;;
11088;SDS011;5598;48.648;8.908;2023-05-07T01:47:26;0.00;;;0.00;;
11088;SDS011;5598;48.648;8.908;2023-05-07T01:49:53;0.50;;;0.50;;
11088;SDS011;5598;48.648;8.908;2023-05-07T01:52:21;0.07;;;0.07;;
11088;SDS011;5598;48.648;8.908;2023-05-07T01:54:49;0.00;;;0.00;;
11088;SDS011;5598;48.648;8.908;2023-05-07T01:57:17;0.00;;;0.00;;
11088;SDS011;5598;48.648;8.908;2023-05-07T01:59:44;0.00;;;0.00;;
11088;SDS011;5598;48.648;8.908;2023-05-07T02:02:11;0.00;;;0.00;;
11088;SDS011;5598;48.648;8.908;2023-05-07T02:04:37;0.00;;;0.00;;
11088;SDS011;5598;48.648;8.908;2023-05-07T02:07:04;0.00;;;0.00;;
11088;SDS011;5598;48.648;8.908;2023-05-07T02:09:31;0.00;;;0.00;;
11088;SDS011;5598;48.648;8.908;2023-05-07T02:11:58;0.00;;;0.00;;
11088;SDS011;5598;48.648;8.908;2023-05-07T02:14:26;0.00;;;0.00;;
11088;SDS011;5598;48.648;8.908;2023-05-07T02:16:52;0.00;;;0.00;;
11088;SDS011;5598;48.648;8.908;2023-05-07T02:19:19;0.00;;;0.00;;
11088;SDS011;5598;48.648;8.908;2023-05-07T02:21:46;0.00;;;0.00;;
11088;SDS011;5598;48.648;8.908;2023-05-07T02:24:13;0.00;;;0.00;;
11088;SDS011;5598;48.648;8.908;2023-05-07T02:26:40;0.00;;;0.00;;
11088;SDS011;5598;48.648;8.908;2023-05-07T02:29:07;0.00;;;0.00;;
11088;SDS011;5598;48.648;8.908;2023-05-07T02:31:35;0.00;;;0.00;;
11088;SDS011;5598;48.648;8.908;2023-05-07T02:34:02;0.00;;;0.00;;
11088;SDS011;5598;48.648;8.908;2023-05-07T02:36:28;0.00;;;0.00;;
11088;SDS011;5598;48.648;8.908;2023-05-07T02:38:55;0.00;;;0.00;;
11088;SDS011;5598;48.648;8.908;2023-05-07T02:41:22;0.00;;;0.00;;
11088;SDS011;5598;48.648;8.908;2023-05-07T02:43:49;0.00;;;0.00;;
11088;SDS011;5598;48.648;8.908;2023-05-07T02:46:16;0.00;;;0.00;;
11088;SDS011;5598;48.648;8.908;2023-05-07T02:48:44;0.10;;;0.10;;
11088;SDS011;5598;48.648;8.908;2023-05-07T02:51:10;0.00;;;0.00;;
11088;SDS011;5598;48.648;8.908;2023-05-07T02:53:37;0.00;;;0.00;;
11088;SDS011;5598;48.648;8.908;2023-05-07T02:56:04;0.43;;;0.43;;
11088;SDS011;5598;48.648;8.908;2023-05-07T02:58:32;0.00;;;0.00;;
11088;SDS011;5598;48.648;8.908;2023-05-07T03:00:58;0.00;;;0.00;;
11088;SDS011;5598;48.648;8.908;2023-05-07T03:03:25;0.00;;;0.00;;
11088;SDS011;5598;48.648;8.908;2023-05-07T03:05:53;0.00;;;0.00;;
11088;SDS011;5598;48.648;8.908;2023-05-07T03:08:20;0.00;;;0.00;;
11088;SDS011;5598;48.648;8.908;2023-05-07T03:10:47;0.07;;;0.07;;
11088;SDS011;5598;48.648;8.908;2023-05-07T03:13:14;0.00;;;0.00;;
11088;SDS011;5598;48.648;8.908;2023-05-07T03:15:41;0.00;;;0.00;;
11088;SDS011;5598;48.648;8.908;2023-05-07T03:18:08;0.10;;;0.10;;
11088;SDS011;5598;48.648;8.908;2023-05-07T03:20:35;0.00;;;0.00;;
11088;SDS011;5598;48.648;8.908;2023-05-07T03:23:03;0.00;;;0.00;;
11088;SDS011;5598;48.648;8.908;2023-05-07T03:25:31;0.00;;;0.00;;
11088;SDS011;5598;48.648;8.908;2023-05-07T03:27:58;0.00;;;0.00;;
11088;SDS011;5598;48.648;8.908;2023-05-07T03:30:25;0.00;;;0.00;;
11088;SDS011;5598;48.648;8.908;2023-05-07T03:32:52;0.00;;;0.00;;
11088;SDS011;5598;48.648;8.908;2023-05-07T03:35:19;0.00;;;0.00;;
11088;SDS011;5598;48.648;8.908;2023-05-07T03:37:45;0.00;;;0.00;;
11088;SDS011;5598;48.648;8.908;2023-05-07T03:40:14;0.00;;;0.00;;
11088;SDS011;5598;48.648;8.908;2023-05-07T03:42:40;0.00;;;0.00;;
11088;SDS011;5598;48.648;8.908;2023-05-07T03:45:08;0.10;;;0.10;;
11088;SDS011;5598;48.648;8.908;2023-05-07T03:47:35;0.00;;;0.00;;
11088;SDS011;5598;48.648;8.908;2023-05-07T03:50:02;0.00;;;0.00;;
11088;SDS011;5598;48.648;8.908;2023-05-07T03:52:29;0.10;;;0.10;;
11088;SDS011;5598;48.648;8.908;2023-05-07T03:54:55;0.00;;;0.00;;
11088;SDS011;5598;48.648;8.908;2023-05-07T03:57:23;0.00;;;0.00;;
11088;SDS011;5598;48.648;8.908;2023-05-07T03:59:50;0.00;;;0.00;;
11088;SDS011;5598;48.648;8.908;2023-05-07T04:02:17;0.00;;;0.00;;
11088;SDS011;5598;48.648;8.908;2023-05-07T04:04:44;0.00;;;0.00;;
11088;SDS011;5598;48.648;8.908;2023-05-07T04:07:10;0.00;;;0.00;;
11088;SDS011;5598;48.648;8.908;2023-05-07T04:09:37;0.00;;;0.00;;
11088;SDS011;5598;48.648;8.908;2023-05-07T04:12:04;0.03;;;0.03;;
11088;SDS011;5598;48.648;8.908;2023-05-07T04:14:32;0.00;;;0.00;;
11088;SDS011;5598;48.648;8.908;2023-05-07T04:16:59;0.00;;;0.00;;
11088;SDS011;5598;48.648;8.908;2023-05-07T04:19:27;0.00;;;0.00;;
11088;SDS011;5598;48.648;8.908;2023-05-07T04:21:54;0.00;;;0.00;;
11088;SDS011;5598;48.648;8.908;2023-05-07T04:24:21;0.00;;;0.00;;
11088;SDS011;5598;48.648;8.908;2023-05-07T04:26:47;0.00;;;0.00;;
11088;SDS011;5598;48.648;8.908;2023-05-07T04:29:16;0.00;;;0.00;;
11088;SDS011;5598;48.648;8.908;2023-05-07T04:31:44;0.00;;;0.00;;
11088;SDS011;5598;48.648;8.908;2023-05-07T04:34:11;0.00;;;0.00;;
11088;SDS011;5598;48.648;8.908;2023-05-07T04:36:37;0.00;;;0.00;;
11088;SDS011;5598;48.648;8.908;2023-05-07T04:39:04;0.00;;;0.00;;
11088;SDS011;5598;48.648;8.908;2023-05-07T04:41:31;0.00;;;0.00;;
11088;SDS011;5598;48.648;8.908;2023-05-07T04:43:58;0.00;;;0.00;;
11088;SDS011;5598;48.648;8.908;2023-05-07T04:46:25;0.00;;;0.00;;
11088;SDS011;5598;48.648;8.908;2023-05-07T04:48:53;0.00;;;0.00;;
11088;SDS011;5598;48.648;8.908;2023-05-07T04:51:20;0.00;;;0.00;;
11088;SDS011;5598;48.648;8.908;2023-05-07T04:53:47;0.00;;;0.00;;
11088;SDS011;5598;48.648;8.908;2023-05-07T04:56:14;0.00;;;0.00;;
11088;SDS011;5598;48.648;8.908;2023-05-07T04:58:41;0.00;;;0.00;;
11088;SDS011;5598;48.648;8.908;2023-05-07T05:01:07;0.57;;;0.57;;
11088;SDS011;5598;48.648;8.908;2023-05-07T05:03:34;0.10;;;0.10;;
11088;SDS011;5598;48.648;8.908;2023-05-07T05:06:02;0.00;;;0.00;;
11088;SDS011;5598;48.648;8.908;2023-05-07T05:08:29;0.00;;;0.00;;
11088;SDS011;5598;48.648;8.908;2023-05-07T05:10:56;0.00;;;0.00;;
11088;SDS011;5598;48.648;8.908;2023-05-07T05:13:23;0.00;;;0.00;;
11088;SDS011;5598;48.648;8.908;2023-05-07T05:15:50;0.00;;;0.00;;
11088;SDS011;5598;48.648;8.908;2023-05-07T05:18:17;0.00;;;0.00;;
11088;SDS011;5598;48.648;8.908;2023-05-07T05:20:43;0.00;;;0.00;;
11088;SDS011;5598;48.648;8.908;2023-05-07T05:23:11;0.10;;;0.10;;
11088;SDS011;5598;48.648;8.908;2023-05-07T05:25:38;0.00;;;0.00;;
11088;SDS011;5598;48.648;8.908;2023-05-07T05:28:05;0.00;;;0.00;;
11088;SDS011;5598;48.648;8.908;2023-05-07T05:30:32;0.00;;;0.00;;
11088;SDS011;5598;48.648;8.908;2023-05-07T05:32:59;0.00;;;0.00;;
11088;SDS011;5598;48.648;8.908;2023-05-07T05:35:26;0.00;;;0.00;;
11088;SDS011;5598;48.648;8.908;2023-05-07T05:37:52;0.00;;;0.00;;
11088;SDS011;5598;48.648;8.908;2023-05-07T05:40:21;0.00;;;0.00;;
11088;SDS011;5598;48.648;8.908;2023-05-07T05:42:47;0.00;;;0.00;;
11088;SDS011;5598;48.648;8.908;2023-05-07T05:45:14;0.00;;;0.00;;
11088;SDS011;5598;48.648;8.908;2023-05-07T05:47:41;0.00;;;0.00;;
11088;SDS011;5598;48.648;8.908;2023-05-07T05:50:08;0.00;;;0.00;;
11088;SDS011;5598;48.648;8.908;2023-05-07T05:52:35;0.00;;;0.00;;
11088;SDS011;5598;48.648;8.908;2023-05-07T05:55:02;0.00;;;0.00;;
11088;SDS011;5598;48.648;8.908;2023-05-07T05:57:30;0.00;;;0.00;;
11088;SDS011;5598;48.648;8.908;2023-05-07T05:59:57;0.00;;;0.00;;
11088;SDS011;5598;48.648;8.908;2023-05-07T06:02:26;0.00;;;0.00;;
11088;SDS011;5598;48.648;8.908;2023-05-07T06:04:53;0.00;;;0.00;;
11088;SDS011;5598;48.648;8.908;2023-05-07T06:07:19;0.00;;;0.00;;
11088;SDS011;5598;48.648;8.908;2023-05-07T06:09:46;0.00;;;0.00;;
11088;SDS011;5598;48.648;8.908;2023-05-07T06:12:13;0.10;;;0.10;;
11088;SDS011;5598;48.648;8.908;2023-05-07T06:14:43;0.50;;;0.50;;
11088;SDS011;5598;48.648;8.908;2023-05-07T06:17:10;0.00;;;0.00;;
11088;SDS011;5598;48.648;8.908;2023-05-07T06:19:37;0.00;;;0.00;;
11088;SDS011;5598;48.648;8.908;2023-05-07T06:22:04;0.00;;;0.00;;
11088;SDS011;5598;48.648;8.908;2023-05-07T06:24:30;0.00;;;0.00;;
11088;SDS011;5598;48.648;8.908;2023-05-07T06:26:57;0.00;;;0.00;;
11088;SDS011;5598;48.648;8.908;2023-05-07T06:29:24;0.00;;;0.00;;
11088;SDS011;5598;48.648;8.908;2023-05-07T06:31:53;0.00;;;0.00;;
11088;SDS011;5598;48.648;8.908;2023-05-07T06:34:20;0.00;;;0.00;;
11088;SDS011;5598;48.648;8.908;2023-05-07T06:36:47;0.00;;;0.00;;
11088;SDS011;5598;48.648;8.908;2023-05-07T06:39:13;0.00;;;0.00;;
11088;SDS011;5598;48.648;8.908;2023-05-07T06:41:40;0.00;;;0.00;;
11088;SDS011;5598;48.648;8.908;2023-05-07T06:44:07;0.00;;;0.00;;
11088;SDS011;5598;48.648;8.908;2023-05-07T06:46:34;0.00;;;0.00;;
11088;SDS011;5598;48.648;8.908;2023-05-07T06:49:02;0.00;;;0.00;;
11088;SDS011;5598;48.648;8.908;2023-05-07T06:51:28;0.00;;;0.00;;
11088;SDS011;5598;48.648;8.908;2023-05-07T06:53:55;0.00;;;0.00;;
11088;SDS011;5598;48.648;8.908;2023-05-07T06:56:22;0.00;;;0.00;;
11088;SDS011;5598;48.648;8.908;2023-05-07T06:58:50;0.00;;;0.00;;
11088;SDS011;5598;48.648;8.908;2023-05-07T07:01:16;0.00;;;0.00;;
11088;SDS011;5598;48.648;8.908;2023-05-07T07:03:43;0.47;;;0.47;;
11088;SDS011;5598;48.648;8.908;2023-05-07T07:06:11;0.40;;;0.40;;
11088;SDS011;5598;48.648;8.908;2023-05-07T07:08:38;0.00;;;0.00;;
11088;SDS011;5598;48.648;8.908;2023-05-07T07:11:05;0.10;;;0.10;;
11088;SDS011;5598;48.648;8.908;2023-05-07T07:13:32;0.00;;;0.00;;
11088;SDS011;5598;48.648;8.908;2023-05-07T07:15:59;0.00;;;0.00;;
11088;SDS011;5598;48.648;8.908;2023-05-07T07:18:26;0.00;;;0.00;;
11088;SDS011;5598;48.648;8.908;2023-05-07T07:20:53;0.00;;;0.00;;
11088;SDS011;5598;48.648;8.908;2023-05-07T07:23:21;2.57;;;1.77;;
11088;SDS011;5598;48.648;8.908;2023-05-07T07:25:48;1.13;;;1.03;;
11088;SDS011;5598;48.648;8.908;2023-05-07T07:28:15;1.10;;;1.00;;
11088;SDS011;5598;48.648;8.908;2023-05-07T07:30:41;0.00;;;0.00;;
11088;SDS011;5598;48.648;8.908;2023-05-07T07:33:09;0.70;;;0.70;;
11088;SDS011;5598;48.648;8.908;2023-05-07T07:35:35;0.10;;;0.10;;
11088;SDS011;5598;48.648;8.908;2023-05-07T07:38:02;1.03;;;0.93;;
11088;SDS011;5598;48.648;8.908;2023-05-07T07:40:31;1.33;;;1.23;;
11088;SDS011;5598;48.648;8.908;2023-05-07T07:42:58;0.93;;;0.30;;
11088;SDS011;5598;48.648;8.908;2023-05-07T07:45:26;0.00;;;0.00;;
11088;SDS011;5598;48.648;8.908;2023-05-07T07:47:53;0.43;;;0.43;;
11088;SDS011;5598;48.648;8.908;2023-05-07T07:50:20;0.00;;;0.00;;
11088;SDS011;5598;48.648;8.908;2023-05-07T07:52:47;0.00;;;0.00;;
11088;SDS011;5598;48.648;8.908;2023-05-07T07:55:14;0.10;;;0.10;;
11088;SDS011;5598;48.648;8.908;2023-05-07T07:57:44;0.00;;;0.00;;
11088;SDS011;5598;48.648;8.908;2023-05-07T08:00:11;0.47;;;0.47;;
11088;SDS011;5598;48.648;8.908;2023-05-07T08:02:39;1.20;;;0.10;;
11088;SDS011;5598;48.648;8.908;2023-05-07T08:05:06;0.00;;;0.00;;
11088;SDS011;5598;48.648;8.908;2023-05-07T08:07:33;0.28;;;0.28;;
11088;SDS011;5598;48.648;8.908;2023-05-07T08:10:00;0.00;;;0.00;;
11088;SDS011;5598;48.648;8.908;2023-05-07T08:12:27;0.17;;;0.08;;
11088;SDS011;5598;48.648;8.908;2023-05-07T08:14:55;0.37;;;0.37;;
11088;SDS011;5598;48.648;8.908;2023-05-07T08:17:22;0.00;;;0.00;;
11088;SDS011;5598;48.648;8.908;2023-05-07T08:19:49;0.00;;;0.00;;
11088;SDS011;5598;48.648;8.908;2023-05-07T08:22:15;0.00;;;0.00;;
11088;SDS011;5598;48.648;8.908;2023-05-07T08:24:43;0.00;;;0.00;;
11088;SDS011;5598;48.648;8.908;2023-05-07T08:27:10;0.00;;;0.00;;
11088;SDS011;5598;48.648;8.908;2023-05-07T08:29:37;0.00;;;0.00;;
11088;SDS011;5598;48.648;8.908;2023-05-07T08:32:05;0.32;;;0.32;;
11088;SDS011;5598;48.648;8.908;2023-05-07T08:34:32;0.00;;;0.00;;
11088;SDS011;5598;48.648;8.908;2023-05-07T08:36:59;0.00;;;0.00;;
11088;SDS011;5598;48.648;8.908;2023-05-07T08:39:26;0.00;;;0.00;;
11088;SDS011;5598;48.648;8.908;2023-05-07T08:41:53;0.00;;;0.00;;
11088;SDS011;5598;48.648;8.908;2023-05-07T08:44:22;0.10;;;0.10;;
11088;SDS011;5598;48.648;8.908;2023-05-07T08:46:51;0.10;;;0.10;;
11088;SDS011;5598;48.648;8.908;2023-05-07T08:49:21;0.00;;;0.00;;
11088;SDS011;5598;48.648;8.908;2023-05-07T08:51:48;0.00;;;0.00;;
11088;SDS011;5598;48.648;8.908;2023-05-07T08:54:15;0.30;;;0.30;;
11088;SDS011;5598;48.648;8.908;2023-05-07T08:56:42;0.00;;;0.00;;
11088;SDS011;5598;48.648;8.908;2023-05-07T08:59:09;0.00;;;0.00;;
11088;SDS011;5598;48.648;8.908;2023-05-07T09:01:36;0.63;;;0.60;;
11088;SDS011;5598;48.648;8.908;2023-05-07T09:04:03;0.10;;;0.10;;
11088;SDS011;5598;48.648;8.908;2023-05-07T09:06:33;0.00;;;0.00;;
11088;SDS011;5598;48.648;8.908;2023-05-07T09:09:00;0.10;;;0.10;;
11088;SDS011;5598;48.648;8.908;2023-05-07T09:11:28;0.05;;;0.05;;
11088;SDS011;5598;48.648;8.908;2023-05-07T09:13:55;0.10;;;0.10;;
11088;SDS011;5598;48.648;8.908;2023-05-07T09:16:24;0.20;;;0.20;;
11088;SDS011;5598;48.648;8.908;2023-05-07T09:18:52;1.98;;;1.20;;
11088;SDS011;5598;48.648;8.908;2023-05-07T09:21:19;0.10;;;0.10;;
11088;SDS011;5598;48.648;8.908;2023-05-07T09:23:50;1.13;;;1.10;;
11088;SDS011;5598;48.648;8.908;2023-05-07T09:26:17;0.50;;;0.50;;
11088;SDS011;5598;48.648;8.908;2023-05-07T09:28:45;0.00;;;0.00;;
11088;SDS011;5598;48.648;8.908;2023-05-07T09:31:12;0.00;;;0.00;;
11088;SDS011;5598;48.648;8.908;2023-05-07T09:33:39;0.00;;;0.00;;
11088;SDS011;5598;48.648;8.908;2023-05-07T09:36:07;0.08;;;0.08;;
11088;SDS011;5598;48.648;8.908;2023-05-07T09:38:35;0.10;;;0.10;;
11088;SDS011;5598;48.648;8.908;2023-05-07T09:41:04;0.20;;;0.20;;
11088;SDS011;5598;48.648;8.908;2023-05-07T09:43:32;0.10;;;0.10;;
11088;SDS011;5598;48.648;8.908;2023-05-07T09:46:01;0.10;;;0.10;;
11088;SDS011;5598;48.648;8.908;2023-05-07T09:48:29;0.10;;;0.10;;
11088;SDS011;5598;48.648;8.908;2023-05-07T09:50:57;0.43;;;0.43;;
11088;SDS011;5598;48.648;8.908;2023-05-07T09:53:29;0.10;;;0.10;;
11088;SDS011;5598;48.648;8.908;2023-05-07T09:55:57;0.10;;;0.10;;
11088;SDS011;5598;48.648;8.908;2023-05-07T09:58:26;0.52;;;0.52;;
11088;SDS011;5598;48.648;8.908;2023-05-07T10:00:54;0.05;;;0.05;;
11088;SDS011;5598;48.648;8.908;2023-05-07T10:03:22;0.60;;;0.60;;
11088;SDS011;5598;48.648;8.908;2023-05-07T10:05:53;1.60;;;1.13;;
11088;SDS011;5598;48.648;8.908;2023-05-07T10:08:21;0.10;;;0.10;;
11088;SDS011;5598;48.648;8.908;2023-05-07T10:10:48;0.10;;;0.10;;
11088;SDS011;5598;48.648;8.908;2023-05-07T10:13:15;0.10;;;0.10;;
11088;SDS011;5598;48.648;8.908;2023-05-07T10:15:44;0.50;;;0.50;;
11088;SDS011;5598;48.648;8.908;2023-05-07T10:18:12;0.10;;;0.10;;
11088;SDS011;5598;48.648;8.908;2023-05-07T10:20:39;0.43;;;0.43;;
11088;SDS011;5598;48.648;8.908;2023-05-07T10:23:08;0.10;;;0.10;;
11088;SDS011;5598;48.648;8.908;2023-05-07T10:25:40;0.10;;;0.10;;
11088;SDS011;5598;48.648;8.908;2023-05-07T10:28:08;0.10;;;0.10;;
11088;SDS011;5598;48.648;8.908;2023-05-07T10:30:38;0.13;;;0.13;;
11088;SDS011;5598;48.648;8.908;2023-05-07T10:33:16;0.40;;;0.40;;
11088;SDS011;5598;48.648;8.908;2023-05-07T10:35:48;6.22;;;1.30;;
11088;SDS011;5598;48.648;8.908;2023-05-07T10:38:15;0.13;;;0.13;;
11088;SDS011;5598;48.648;8.908;2023-05-07T10:40:43;0.20;;;0.20;;
11088;SDS011;5598;48.648;8.908;2023-05-07T10:43:10;0.10;;;0.10;;
11088;SDS011;5598;48.648;8.908;2023-05-07T10:45:37;0.20;;;0.20;;
11088;SDS011;5598;48.648;8.908;2023-05-07T10:48:10;0.45;;;0.45;;
11088;SDS011;5598;48.648;8.908;2023-05-07T10:50:42;0.10;;;0.10;;
11088;SDS011;5598;48.648;8.908;2023-05-07T10:53:22;0.40;;;0.40;;
11088;SDS011;5598;48.648;8.908;2023-05-07T10:55:51;0.10;;;0.10;;
11088;SDS011;5598;48.648;8.908;2023-05-07T10:58:50;0.10;;;0.10;;
11088;SDS011;5598;48.648;8.908;2023-05-07T11:01:17;0.10;;;0.10;;
11088;SDS011;5598;48.648;8.908;2023-05-07T11:04:16;0.10;;;0.10;;
11088;SDS011;5598;48.648;8.908;2023-05-07T11:09:56;0.80;;;0.80;;
11088;SDS011;5598;48.648;8.908;2023-05-07T11:15:34;0.00;;;0.00;;
11088;SDS011;5598;48.648;8.908;2023-05-07T11:18:09;0.20;;;0.20;;
11088;SDS011;5598;48.648;8.908;2023-05-07T11:20:47;0.10;;;0.10;;
11088;SDS011;5598;48.648;8.908;2023-05-07T11:26:23;0.28;;;0.28;;
11088;SDS011;5598;48.648;8.908;2023-05-07T11:28:51;0.00;;;0.00;;
11088;SDS011;5598;48.648;8.908;2023-05-07T11:31:22;0.00;;;0.00;;
11088;SDS011;5598;48.648;8.908;2023-05-07T11:33:51;0.03;;;0.03;;
11088;SDS011;5598;48.648;8.908;2023-05-07T11:36:20;0.00;;;0.00;;
11088;SDS011;5598;48.648;8.908;2023-05-07T11:38:48;0.00;;;0.00;;
11088;SDS011;5598;48.648;8.908;2023-05-07T11:41:15;0.00;;;0.00;;
11088;SDS011;5598;48.648;8.908;2023-05-07T11:43:56;0.00;;;0.00;;
11088;SDS011;5598;48.648;8.908;2023-05-07T11:46:24;0.00;;;0.00;;
11088;SDS011;5598;48.648;8.908;2023-05-07T11:48:51;0.00;;;0.00;;
11088;SDS011;5598;48.648;8.908;2023-05-07T11:51:18;0.00;;;0.00;;
11088;SDS011;5598;48.648;8.908;2023-05-07T11:53:46;1.10;;;0.93;;
11088;SDS011;5598;48.648;8.908;2023-05-07T11:56:13;0.90;;;0.57;;
11088;SDS011;5598;48.648;8.908;2023-05-07T11:58:41;0.00;;;0.00;;
11088;SDS011;5598;48.648;8.908;2023-05-07T12:01:11;0.15;;;0.15;;
11088;SDS011;5598;48.648;8.908;2023-05-07T12:03:39;0.00;;;0.00;;
11088;SDS011;5598;48.648;8.908;2023-05-07T12:06:09;0.00;;;0.00;;
11088;SDS011;5598;48.648;8.908;2023-05-07T12:08:37;0.00;;;0.00;;
11088;SDS011;5598;48.648;8.908;2023-05-07T12:11:07;0.00;;;0.00;;
11088;SDS011;5598;48.648;8.908;2023-05-07T12:13:36;0.03;;;0.03;;
11088;SDS011;5598;48.648;8.908;2023-05-07T12:16:03;0.00;;;0.00;;
11088;SDS011;5598;48.648;8.908;2023-05-07T12:18:33;0.00;;;0.00;;
11088;SDS011;5598;48.648;8.908;2023-05-07T12:21:01;0.00;;;0.00;;
11088;SDS011;5598;48.648;8.908;2023-05-07T12:23:28;0.00;;;0.00;;
11088;SDS011;5598;48.648;8.908;2023-05-07T12:25:55;0.00;;;0.00;;
11088;SDS011;5598;48.648;8.908;2023-05-07T12:28:22;0.00;;;0.00;;
11088;SDS011;5598;48.648;8.908;2023-05-07T12:30:50;0.00;;;0.00;;
11088;SDS011;5598;48.648;8.908;2023-05-07T12:33:17;0.00;;;0.00;;
11088;SDS011;5598;48.648;8.908;2023-05-07T12:35:48;0.00;;;0.00;;
11088;SDS011;5598;48.648;8.908;2023-05-07T12:38:15;0.00;;;0.00;;
11088;SDS011;5598;48.648;8.908;2023-05-07T12:40:44;0.80;;;0.43;;
11088;SDS011;5598;48.648;8.908;2023-05-07T12:43:15;0.85;;;0.80;;
11088;SDS011;5598;48.648;8.908;2023-05-07T12:45:43;0.30;;;0.10;;
11088;SDS011;5598;48.648;8.908;2023-05-07T12:48:11;0.00;;;0.00;;
11088;SDS011;5598;48.648;8.908;2023-05-07T12:50:38;3.00;;;1.50;;
11088;SDS011;5598;48.648;8.908;2023-05-07T12:53:07;0.17;;;0.17;;
11088;SDS011;5598;48.648;8.908;2023-05-07T12:55:42;0.10;;;0.10;;
11088;SDS011;5598;48.648;8.908;2023-05-07T12:58:16;0.30;;;0.30;;
11088;SDS011;5598;48.648;8.908;2023-05-07T13:00:44;0.37;;;0.10;;
11088;SDS011;5598;48.648;8.908;2023-05-07T13:03:20;2.53;;;0.70;;
11088;SDS011;5598;48.648;8.908;2023-05-07T13:05:48;0.40;;;0.40;;
11088;SDS011;5598;48.648;8.908;2023-05-07T13:08:24;0.63;;;0.63;;
11088;SDS011;5598;48.648;8.908;2023-05-07T13:10:52;0.33;;;0.27;;
11088;SDS011;5598;48.648;8.908;2023-05-07T13:13:19;8.30;;;1.73;;
11088;SDS011;5598;48.648;8.908;2023-05-07T13:15:46;3.90;;;1.20;;
11088;SDS011;5598;48.648;8.908;2023-05-07T13:18:12;1.30;;;0.77;;
11088;SDS011;5598;48.648;8.908;2023-05-07T13:20:39;7.40;;;3.00;;
11088;SDS011;5598;48.648;8.908;2023-05-07T13:23:06;1.20;;;1.10;;
11088;SDS011;5598;48.648;8.908;2023-05-07T13:25:34;3.07;;;2.27;;
11088;SDS011;5598;48.648;8.908;2023-05-07T13:28:01;4.53;;;3.17;;
11088;SDS011;5598;48.648;8.908;2023-05-07T13:30:29;2.50;;;0.73;;
11088;SDS011;5598;48.648;8.908;2023-05-07T13:32:56;0.20;;;0.20;;
11088;SDS011;5598;48.648;8.908;2023-05-07T13:35:23;8.30;;;3.20;;
11088;SDS011;5598;48.648;8.908;2023-05-07T13:37:50;3.03;;;2.37;;
11088;SDS011;5598;48.648;8.908;2023-05-07T13:40:17;4.10;;;1.77;;
11088;SDS011;5598;48.648;8.908;2023-05-07T13:42:45;4.67;;;2.07;;
11088;SDS011;5598;48.648;8.908;2023-05-07T13:45:12;9.00;;;5.17;;
11088;SDS011;5598;48.648;8.908;2023-05-07T13:47:40;10.17;;;4.73;;
11088;SDS011;5598;48.648;8.908;2023-05-07T13:50:07;2.20;;;1.23;;
11088;SDS011;5598;48.648;8.908;2023-05-07T13:52:35;13.13;;;4.77;;
11088;SDS011;5598;48.648;8.908;2023-05-07T13:55:01;10.77;;;3.63;;
11088;SDS011;5598;48.648;8.908;2023-05-07T13:57:29;7.53;;;4.97;;
11088;SDS011;5598;48.648;8.908;2023-05-07T13:59:57;6.57;;;4.10;;
11088;SDS011;5598;48.648;8.908;2023-05-07T14:02:23;10.37;;;2.73;;
11088;SDS011;5598;48.648;8.908;2023-05-07T14:04:50;7.60;;;1.77;;
11088;SDS011;5598;48.648;8.908;2023-05-07T14:07:17;1.30;;;0.40;;
11088;SDS011;5598;48.648;8.908;2023-05-07T14:09:45;2.40;;;1.17;;
11088;SDS011;5598;48.648;8.908;2023-05-07T14:12:11;0.30;;;0.30;;
11088;SDS011;5598;48.648;8.908;2023-05-07T14:14:38;0.50;;;0.50;;
11088;SDS011;5598;48.648;8.908;2023-05-07T14:17:06;0.50;;;0.40;;
11088;SDS011;5598;48.648;8.908;2023-05-07T14:19:33;0.00;;;0.00;;
11088;SDS011;5598;48.648;8.908;2023-05-07T14:22:00;0.00;;;0.00;;
11088;SDS011;5598;48.648;8.908;2023-05-07T14:24:27;2.70;;;2.50;;
11088;SDS011;5598;48.648;8.908;2023-05-07T14:26:54;0.27;;;0.27;;
11088;SDS011;5598;48.648;8.908;2023-05-07T14:29:21;0.00;;;0.00;;
11088;SDS011;5598;48.648;8.908;2023-05-07T14:31:47;0.00;;;0.00;;
11088;SDS011;5598;48.648;8.908;2023-05-07T14:34:16;0.00;;;0.00;;
11088;SDS011;5598;48.648;8.908;2023-05-07T14:36:42;0.00;;;0.00;;
11088;SDS011;5598;48.648;8.908;2023-05-07T14:39:09;0.00;;;0.00;;
11088;SDS011;5598;48.648;8.908;2023-05-07T14:41:36;0.00;;;0.00;;
11088;SDS011;5598;48.648;8.908;2023-05-07T14:44:03;0.00;;;0.00;;
11088;SDS011;5598;48.648;8.908;2023-05-07T14:46:30;0.00;;;0.00;;
11088;SDS011;5598;48.648;8.908;2023-05-07T14:48:57;0.10;;;0.10;;
11088;SDS011;5598;48.648;8.908;2023-05-07T14:51:25;0.00;;;0.00;;
11088;SDS011;5598;48.648;8.908;2023-05-07T14:53:53;0.00;;;0.00;;
11088;SDS011;5598;48.648;8.908;2023-05-07T14:56:20;0.00;;;0.00;;
11088;SDS011;5598;48.648;8.908;2023-05-07T14:58:47;0.53;;;0.53;;
11088;SDS011;5598;48.648;8.908;2023-05-07T15:01:14;0.00;;;0.00;;
11088;SDS011;5598;48.648;8.908;2023-05-07T15:03:41;0.00;;;0.00;;
11088;SDS011;5598;48.648;8.908;2023-05-07T15:06:08;0.00;;;0.00;;
11088;SDS011;5598;48.648;8.908;2023-05-07T15:08:36;0.00;;;0.00;;
11088;SDS011;5598;48.648;8.908;2023-05-07T15:11:02;0.00;;;0.00;;
11088;SDS011;5598;48.648;8.908;2023-05-07T15:13:29;0.00;;;0.00;;